sensor_id;sensor_type;location;lat;lon;timestamp;temperature;humidity
7934;DHT22;4012;48.896;9.192;2022-11-24T00:01:21;8.00;99.90
7934;DHT22;4012;48.896;9.192;2022-11-24T00:03:53;8.00;99.90
7934;DHT22;4012;48.896;9.192;2022-11-24T00:06:19;8.00;99.90
7934;DHT22;4012;48.896;9.192;2022-11-24T00:08:45;8.00;99.90
7934;DHT22;4012;48.896;9.192;2022-11-24T00:11:13;7.90;99.90
7934;DHT22;4012;48.896;9.192;2022-11-24T00:13:39;7.80;99.90
7934;DHT22;4012;48.896;9.192;2022-11-24T00:16:15;7.80;99.90
7934;DHT22;4012;48.896;9.192;2022-11-24T00:18:42;7.80;99.90
7934;DHT22;4012;48.896;9.192;2022-11-24T00:21:09;7.80;99.90
7934;DHT22;4012;48.896;9.192;2022-11-24T00:23:35;7.80;99.90
7934;DHT22;4012;48.896;9.192;2022-11-24T00:26:14;7.80;99.90
7934;DHT22;4012;48.896;9.192;2022-11-24T00:28:41;7.80;99.90
7934;DHT22;4012;48.896;9.192;2022-11-24T00:31:16;7.80;99.90
7934;DHT22;4012;48.896;9.192;2022-11-24T00:33:42;7.70;99.90
7934;DHT22;4012;48.896;9.192;2022-11-24T00:36:08;7.70;99.90
7934;DHT22;4012;48.896;9.192;2022-11-24T00:38:33;7.70;99.90
7934;DHT22;4012;48.896;9.192;2022-11-24T00:40:59;7.70;99.90
7934;DHT22;4012;48.896;9.192;2022-11-24T00:43:25;7.60;99.90
7934;DHT22;4012;48.896;9.192;2022-11-24T00:45:50;7.70;99.90
7934;DHT22;4012;48.896;9.192;2022-11-24T00:48:16;7.80;99.90
7934;DHT22;4012;48.896;9.192;2022-11-24T00:50:41;7.70;99.90
7934;DHT22;4012;48.896;9.192;2022-11-24T00:53:07;7.70;99.90
7934;DHT22;4012;48.896;9.192;2022-11-24T00:55:33;7.70;99.90
7934;DHT22;4012;48.896;9.192;2022-11-24T00:57:58;7.70;99.90
7934;DHT22;4012;48.896;9.192;2022-11-24T01:00:24;7.70;99.90
7934;DHT22;4012;48.896;9.192;2022-11-24T01:02:51;7.70;99.90
7934;DHT22;4012;48.896;9.192;2022-11-24T01:05:17;7.70;99.90
7934;DHT22;4012;48.896;9.192;2022-11-24T01:07:43;7.70;99.90
7934;DHT22;4012;48.896;9.192;2022-11-24T01:10:08;7.70;99.90
7934;DHT22;4012;48.896;9.192;2022-11-24T01:12:34;7.70;99.90
7934;DHT22;4012;48.896;9.192;2022-11-24T01:15:00;7.60;99.90
7934;DHT22;4012;48.896;9.192;2022-11-24T01:17:25;7.70;99.90
7934;DHT22;4012;48.896;9.192;2022-11-24T01:19:51;7.60;99.90
7934;DHT22;4012;48.896;9.192;2022-11-24T01:22:17;7.50;99.90
7934;DHT22;4012;48.896;9.192;2022-11-24T01:24:42;7.50;99.90
7934;DHT22;4012;48.896;9.192;2022-11-24T01:27:08;7.40;99.90
7934;DHT22;4012;48.896;9.192;2022-11-24T01:29:34;7.40;99.90
7934;DHT22;4012;48.896;9.192;2022-11-24T01:31:59;7.40;99.90
7934;DHT22;4012;48.896;9.192;2022-11-24T01:34:25;7.50;99.90
7934;DHT22;4012;48.896;9.192;2022-11-24T01:36:51;7.50;99.90
7934;DHT22;4012;48.896;9.192;2022-11-24T01:39:16;7.50;99.90
7934;DHT22;4012;48.896;9.192;2022-11-24T01:41:42;7.50;99.90
7934;DHT22;4012;48.896;9.192;2022-11-24T01:44:26;7.60;99.90
7934;DHT22;4012;48.896;9.192;2022-11-24T01:49:57;7.60;99.90
7934;DHT22;4012;48.896;9.192;2022-11-24T01:52:37;7.60;99.90
7934;DHT22;4012;48.896;9.192;2022-11-24T01:55:08;7.60;99.90
7934;DHT22;4012;48.896;9.192;2022-11-24T01:57:47;7.60;99.90
7934;DHT22;4012;48.896;9.192;2022-11-24T02:00:15;7.70;99.90
7934;DHT22;4012;48.896;9.192;2022-11-24T02:02:42;7.70;99.90
7934;DHT22;4012;48.896;9.192;2022-11-24T02:05:25;7.70;99.90
7934;DHT22;4012;48.896;9.192;2022-11-24T02:07:54;7.70;99.90
7934;DHT22;4012;48.896;9.192;2022-11-24T02:10:20;7.80;99.90
7934;DHT22;4012;48.896;9.192;2022-11-24T02:12:47;7.90;99.90
7934;DHT22;4012;48.896;9.192;2022-11-24T02:15:15;8.00;99.90
7934;DHT22;4012;48.896;9.192;2022-11-24T02:17:41;8.10;99.90
7934;DHT22;4012;48.896;9.192;2022-11-24T02:20:08;8.10;99.90
7934;DHT22;4012;48.896;9.192;2022-11-24T02:23:13;8.10;99.90
7934;DHT22;4012;48.896;9.192;2022-11-24T02:26:01;8.20;99.90
7934;DHT22;4012;48.896;9.192;2022-11-24T02:28:30;8.20;99.90
7934;DHT22;4012;48.896;9.192;2022-11-24T02:30:57;8.20;99.90
7934;DHT22;4012;48.896;9.192;2022-11-24T02:33:24;8.10;99.90
7934;DHT22;4012;48.896;9.192;2022-11-24T02:35:50;8.20;99.90
7934;DHT22;4012;48.896;9.192;2022-11-24T02:38:16;8.20;99.90
7934;DHT22;4012;48.896;9.192;2022-11-24T02:40:45;8.20;99.90
7934;DHT22;4012;48.896;9.192;2022-11-24T02:43:16;8.30;99.90
7934;DHT22;4012;48.896;9.192;2022-11-24T02:45:42;8.30;99.90
7934;DHT22;4012;48.896;9.192;2022-11-24T02:48:07;8.30;99.90
7934;DHT22;4012;48.896;9.192;2022-11-24T02:50:33;8.40;99.90
7934;DHT22;4012;48.896;9.192;2022-11-24T02:52:58;8.40;99.90
7934;DHT22;4012;48.896;9.192;2022-11-24T02:55:24;8.30;99.90
7934;DHT22;4012;48.896;9.192;2022-11-24T02:57:50;8.30;99.90
7934;DHT22;4012;48.896;9.192;2022-11-24T03:00:16;8.20;99.90
7934;DHT22;4012;48.896;9.192;2022-11-24T03:02:42;8.20;99.90
7934;DHT22;4012;48.896;9.192;2022-11-24T03:05:09;8.10;99.90
7934;DHT22;4012;48.896;9.192;2022-11-24T03:07:36;8.10;99.90
7934;DHT22;4012;48.896;9.192;2022-11-24T03:10:02;8.10;99.90
7934;DHT22;4012;48.896;9.192;2022-11-24T03:12:27;8.00;99.90
7934;DHT22;4012;48.896;9.192;2022-11-24T03:14:53;7.90;99.90
7934;DHT22;4012;48.896;9.192;2022-11-24T03:17:19;7.80;99.90
7934;DHT22;4012;48.896;9.192;2022-11-24T03:19:44;7.80;99.90
7934;DHT22;4012;48.896;9.192;2022-11-24T03:22:11;7.70;99.90
7934;DHT22;4012;48.896;9.192;2022-11-24T03:24:37;7.70;99.90
7934;DHT22;4012;48.896;9.192;2022-11-24T03:27:03;7.70;99.90
7934;DHT22;4012;48.896;9.192;2022-11-24T03:29:28;7.70;99.90
7934;DHT22;4012;48.896;9.192;2022-11-24T03:31:54;7.70;99.90
7934;DHT22;4012;48.896;9.192;2022-11-24T03:34:20;7.60;99.90
7934;DHT22;4012;48.896;9.192;2022-11-24T03:36:45;7.50;99.90
7934;DHT22;4012;48.896;9.192;2022-11-24T03:39:11;7.50;99.90
7934;DHT22;4012;48.896;9.192;2022-11-24T03:41:36;7.40;99.90
7934;DHT22;4012;48.896;9.192;2022-11-24T03:44:02;7.40;99.90
7934;DHT22;4012;48.896;9.192;2022-11-24T03:46:28;7.50;99.90
7934;DHT22;4012;48.896;9.192;2022-11-24T03:48:53;7.50;99.90
7934;DHT22;4012;48.896;9.192;2022-11-24T03:51:19;7.50;99.90
7934;DHT22;4012;48.896;9.192;2022-11-24T03:53:44;7.50;99.90
7934;DHT22;4012;48.896;9.192;2022-11-24T03:56:10;7.50;99.90
7934;DHT22;4012;48.896;9.192;2022-11-24T03:58:35;7.50;99.90
7934;DHT22;4012;48.896;9.192;2022-11-24T04:01:01;7.50;99.90
7934;DHT22;4012;48.896;9.192;2022-11-24T04:03:28;7.60;99.90
7934;DHT22;4012;48.896;9.192;2022-11-24T04:05:54;7.50;99.90
7934;DHT22;4012;48.896;9.192;2022-11-24T04:08:19;7.60;99.90
7934;DHT22;4012;48.896;9.192;2022-11-24T04:10:54;7.60;99.90
7934;DHT22;4012;48.896;9.192;2022-11-24T04:13:23;7.50;99.90
7934;DHT22;4012;48.896;9.192;2022-11-24T04:15:49;7.50;99.90
7934;DHT22;4012;48.896;9.192;2022-11-24T04:18:14;7.50;99.90
7934;DHT22;4012;48.896;9.192;2022-11-24T04:20:41;7.60;99.90
7934;DHT22;4012;48.896;9.192;2022-11-24T04:23:08;7.50;99.90
7934;DHT22;4012;48.896;9.192;2022-11-24T04:25:34;7.50;99.90
7934;DHT22;4012;48.896;9.192;2022-11-24T04:27:59;7.50;99.90
7934;DHT22;4012;48.896;9.192;2022-11-24T04:30:26;7.50;99.90
7934;DHT22;4012;48.896;9.192;2022-11-24T04:32:52;7.50;99.90
7934;DHT22;4012;48.896;9.192;2022-11-24T04:35:19;7.50;99.90
7934;DHT22;4012;48.896;9.192;2022-11-24T04:37:44;7.50;99.90
7934;DHT22;4012;48.896;9.192;2022-11-24T04:40:11;7.60;99.90
7934;DHT22;4012;48.896;9.192;2022-11-24T04:42:37;7.60;99.90
7934;DHT22;4012;48.896;9.192;2022-11-24T04:45:03;7.60;99.90
7934;DHT22;4012;48.896;9.192;2022-11-24T04:47:29;7.70;99.90
7934;DHT22;4012;48.896;9.192;2022-11-24T04:49:55;7.70;99.90
7934;DHT22;4012;48.896;9.192;2022-11-24T04:52:22;7.70;99.90
7934;DHT22;4012;48.896;9.192;2022-11-24T04:54:48;7.70;99.90
7934;DHT22;4012;48.896;9.192;2022-11-24T04:57:22;7.70;99.90
7934;DHT22;4012;48.896;9.192;2022-11-24T04:59:49;7.70;99.90
7934;DHT22;4012;48.896;9.192;2022-11-24T05:02:15;7.70;99.90
7934;DHT22;4012;48.896;9.192;2022-11-24T05:04:41;7.60;99.90
7934;DHT22;4012;48.896;9.192;2022-11-24T05:07:08;7.50;99.90
7934;DHT22;4012;48.896;9.192;2022-11-24T05:09:34;7.40;99.90
7934;DHT22;4012;48.896;9.192;2022-11-24T05:12:20;7.40;99.90
7934;DHT22;4012;48.896;9.192;2022-11-24T05:14:46;7.40;99.90
7934;DHT22;4012;48.896;9.192;2022-11-24T05:17:11;7.50;99.90
7934;DHT22;4012;48.896;9.192;2022-11-24T05:19:37;7.50;99.90
7934;DHT22;4012;48.896;9.192;2022-11-24T05:22:03;7.50;99.90
7934;DHT22;4012;48.896;9.192;2022-11-24T05:24:28;7.50;99.90
7934;DHT22;4012;48.896;9.192;2022-11-24T05:26:54;7.40;99.90
7934;DHT22;4012;48.896;9.192;2022-11-24T05:29:19;7.50;99.90
7934;DHT22;4012;48.896;9.192;2022-11-24T05:31:45;7.60;99.90
7934;DHT22;4012;48.896;9.192;2022-11-24T05:34:10;7.60;99.90
7934;DHT22;4012;48.896;9.192;2022-11-24T05:36:38;7.60;99.90
7934;DHT22;4012;48.896;9.192;2022-11-24T05:39:22;7.60;99.90
7934;DHT22;4012;48.896;9.192;2022-11-24T05:41:47;7.60;99.90
7934;DHT22;4012;48.896;9.192;2022-11-24T05:44:14;7.70;99.90
7934;DHT22;4012;48.896;9.192;2022-11-24T05:46:39;7.70;99.90
7934;DHT22;4012;48.896;9.192;2022-11-24T05:49:05;7.70;99.90
7934;DHT22;4012;48.896;9.192;2022-11-24T05:51:31;7.80;99.90
7934;DHT22;4012;48.896;9.192;2022-11-24T05:53:57;7.70;99.90
7934;DHT22;4012;48.896;9.192;2022-11-24T05:56:23;7.80;99.90
7934;DHT22;4012;48.896;9.192;2022-11-24T05:58:48;7.70;99.90
7934;DHT22;4012;48.896;9.192;2022-11-24T06:01:14;7.70;99.90
7934;DHT22;4012;48.896;9.192;2022-11-24T06:03:40;7.50;99.90
7934;DHT22;4012;48.896;9.192;2022-11-24T06:06:06;7.60;99.90
7934;DHT22;4012;48.896;9.192;2022-11-24T06:08:32;7.50;99.90
7934;DHT22;4012;48.896;9.192;2022-11-24T06:10:59;7.50;99.90
7934;DHT22;4012;48.896;9.192;2022-11-24T06:13:42;7.50;99.90
7934;DHT22;4012;48.896;9.192;2022-11-24T06:16:08;7.50;99.90
7934;DHT22;4012;48.896;9.192;2022-11-24T06:18:35;7.50;99.90
7934;DHT22;4012;48.896;9.192;2022-11-24T06:21:02;7.50;99.90
7934;DHT22;4012;48.896;9.192;2022-11-24T06:23:28;7.50;99.90
7934;DHT22;4012;48.896;9.192;2022-11-24T06:25:55;7.50;99.90
7934;DHT22;4012;48.896;9.192;2022-11-24T06:28:21;7.50;99.90
7934;DHT22;4012;48.896;9.192;2022-11-24T06:30:46;7.50;99.90
7934;DHT22;4012;48.896;9.192;2022-11-24T06:33:12;7.50;99.90
7934;DHT22;4012;48.896;9.192;2022-11-24T06:35:38;7.50;99.90
7934;DHT22;4012;48.896;9.192;2022-11-24T06:38:04;7.50;99.90
7934;DHT22;4012;48.896;9.192;2022-11-24T06:40:30;7.60;99.90
7934;DHT22;4012;48.896;9.192;2022-11-24T06:42:55;7.60;99.90
7934;DHT22;4012;48.896;9.192;2022-11-24T06:45:21;7.70;99.90
7934;DHT22;4012;48.896;9.192;2022-11-24T06:47:47;7.70;99.90
7934;DHT22;4012;48.896;9.192;2022-11-24T06:50:13;7.80;99.90
7934;DHT22;4012;48.896;9.192;2022-11-24T06:52:39;7.80;99.90
7934;DHT22;4012;48.896;9.192;2022-11-24T06:55:05;7.80;99.90
7934;DHT22;4012;48.896;9.192;2022-11-24T06:57:30;7.80;99.90
7934;DHT22;4012;48.896;9.192;2022-11-24T06:59:56;7.80;99.90
7934;DHT22;4012;48.896;9.192;2022-11-24T07:02:23;7.80;99.90
7934;DHT22;4012;48.896;9.192;2022-11-24T07:04:48;7.80;99.90
7934;DHT22;4012;48.896;9.192;2022-11-24T07:07:14;7.90;99.90
7934;DHT22;4012;48.896;9.192;2022-11-24T07:09:39;7.90;99.90
7934;DHT22;4012;48.896;9.192;2022-11-24T07:12:05;7.90;99.90
7934;DHT22;4012;48.896;9.192;2022-11-24T07:14:31;7.90;99.90
7934;DHT22;4012;48.896;9.192;2022-11-24T07:16:57;8.00;99.90
7934;DHT22;4012;48.896;9.192;2022-11-24T07:19:22;8.00;99.90
7934;DHT22;4012;48.896;9.192;2022-11-24T07:21:48;8.10;99.90
7934;DHT22;4012;48.896;9.192;2022-11-24T07:24:13;8.10;99.90
7934;DHT22;4012;48.896;9.192;2022-11-24T07:26:39;8.10;99.90
7934;DHT22;4012;48.896;9.192;2022-11-24T07:29:05;8.20;99.90
7934;DHT22;4012;48.896;9.192;2022-11-24T07:31:30;8.30;99.90
7934;DHT22;4012;48.896;9.192;2022-11-24T07:33:56;8.30;99.90
7934;DHT22;4012;48.896;9.192;2022-11-24T07:36:23;8.40;99.90
7934;DHT22;4012;48.896;9.192;2022-11-24T07:38:49;8.40;99.90
7934;DHT22;4012;48.896;9.192;2022-11-24T07:41:15;8.40;99.90
7934;DHT22;4012;48.896;9.192;2022-11-24T07:43:42;8.40;99.90
7934;DHT22;4012;48.896;9.192;2022-11-24T07:46:11;8.40;99.90
7934;DHT22;4012;48.896;9.192;2022-11-24T07:48:37;8.40;99.90
7934;DHT22;4012;48.896;9.192;2022-11-24T07:51:03;8.50;99.90
7934;DHT22;4012;48.896;9.192;2022-11-24T07:53:29;8.50;99.90
7934;DHT22;4012;48.896;9.192;2022-11-24T07:55:56;8.40;99.90
7934;DHT22;4012;48.896;9.192;2022-11-24T07:58:29;8.40;99.90
7934;DHT22;4012;48.896;9.192;2022-11-24T08:00:55;8.40;99.90
7934;DHT22;4012;48.896;9.192;2022-11-24T08:03:21;8.50;99.90
7934;DHT22;4012;48.896;9.192;2022-11-24T08:05:58;8.40;99.90
7934;DHT22;4012;48.896;9.192;2022-11-24T08:08:24;8.40;99.90
7934;DHT22;4012;48.896;9.192;2022-11-24T08:10:50;8.50;99.90
7934;DHT22;4012;48.896;9.192;2022-11-24T08:13:16;8.60;99.90
7934;DHT22;4012;48.896;9.192;2022-11-24T08:15:42;8.50;99.90
7934;DHT22;4012;48.896;9.192;2022-11-24T08:18:08;8.60;99.90
7934;DHT22;4012;48.896;9.192;2022-11-24T08:20:33;8.50;99.90
7934;DHT22;4012;48.896;9.192;2022-11-24T08:22:59;8.50;99.90
7934;DHT22;4012;48.896;9.192;2022-11-24T08:25:26;8.60;99.90
7934;DHT22;4012;48.896;9.192;2022-11-24T08:28:00;8.60;99.90
7934;DHT22;4012;48.896;9.192;2022-11-24T08:30:27;8.60;99.90
7934;DHT22;4012;48.896;9.192;2022-11-24T08:32:53;8.60;99.90
7934;DHT22;4012;48.896;9.192;2022-11-24T08:35:18;8.70;99.90
7934;DHT22;4012;48.896;9.192;2022-11-24T08:37:44;8.60;99.90
7934;DHT22;4012;48.896;9.192;2022-11-24T08:40:10;8.70;99.90
7934;DHT22;4012;48.896;9.192;2022-11-24T08:42:36;8.70;99.90
7934;DHT22;4012;48.896;9.192;2022-11-24T08:45:02;8.70;99.90
7934;DHT22;4012;48.896;9.192;2022-11-24T08:47:27;8.70;99.90
7934;DHT22;4012;48.896;9.192;2022-11-24T08:49:53;8.70;99.90
7934;DHT22;4012;48.896;9.192;2022-11-24T08:52:18;8.70;99.90
7934;DHT22;4012;48.896;9.192;2022-11-24T08:54:44;8.70;99.90
7934;DHT22;4012;48.896;9.192;2022-11-24T08:57:12;8.80;99.90
7934;DHT22;4012;48.896;9.192;2022-11-24T08:59:38;8.80;99.90
7934;DHT22;4012;48.896;9.192;2022-11-24T09:02:05;8.70;99.90
7934;DHT22;4012;48.896;9.192;2022-11-24T09:04:31;8.70;99.90
7934;DHT22;4012;48.896;9.192;2022-11-24T09:06:57;8.70;99.90
7934;DHT22;4012;48.896;9.192;2022-11-24T09:09:22;8.80;99.90
7934;DHT22;4012;48.896;9.192;2022-11-24T09:11:48;8.80;99.90
7934;DHT22;4012;48.896;9.192;2022-11-24T09:14:14;8.80;99.90
7934;DHT22;4012;48.896;9.192;2022-11-24T09:16:40;8.80;99.90
7934;DHT22;4012;48.896;9.192;2022-11-24T09:19:06;8.70;99.90
7934;DHT22;4012;48.896;9.192;2022-11-24T09:21:33;8.90;99.90
7934;DHT22;4012;48.896;9.192;2022-11-24T09:24:02;9.10;99.90
7934;DHT22;4012;48.896;9.192;2022-11-24T09:26:29;9.10;99.90
7934;DHT22;4012;48.896;9.192;2022-11-24T09:28:56;9.10;99.90
7934;DHT22;4012;48.896;9.192;2022-11-24T09:31:27;9.20;99.90
7934;DHT22;4012;48.896;9.192;2022-11-24T09:33:54;9.20;99.90
7934;DHT22;4012;48.896;9.192;2022-11-24T09:36:20;9.30;99.90
7934;DHT22;4012;48.896;9.192;2022-11-24T09:38:45;9.40;99.90
7934;DHT22;4012;48.896;9.192;2022-11-24T09:44:08;9.60;99.90
7934;DHT22;4012;48.896;9.192;2022-11-24T09:49:17;9.80;99.90
7934;DHT22;4012;48.896;9.192;2022-11-24T09:51:47;9.80;99.90
7934;DHT22;4012;48.896;9.192;2022-11-24T09:54:22;9.90;99.90
7934;DHT22;4012;48.896;9.192;2022-11-24T09:56:51;9.80;99.90
7934;DHT22;4012;48.896;9.192;2022-11-24T09:59:21;9.80;99.90
7934;DHT22;4012;48.896;9.192;2022-11-24T10:01:47;9.70;99.90
7934;DHT22;4012;48.896;9.192;2022-11-24T10:04:19;9.50;99.90
7934;DHT22;4012;48.896;9.192;2022-11-24T10:09:57;9.60;99.90
7934;DHT22;4012;48.896;9.192;2022-11-24T10:26:54;10.70;99.90
7934;DHT22;4012;48.896;9.192;2022-11-24T10:29:41;11.30;99.90
7934;DHT22;4012;48.896;9.192;2022-11-24T10:32:32;11.30;99.90
7934;DHT22;4012;48.896;9.192;2022-11-24T10:35:19;11.40;99.90
7934;DHT22;4012;48.896;9.192;2022-11-24T10:37:53;11.10;99.90
7934;DHT22;4012;48.896;9.192;2022-11-24T10:40:39;10.90;99.90
7934;DHT22;4012;48.896;9.192;2022-11-24T10:43:09;10.70;99.90
7934;DHT22;4012;48.896;9.192;2022-11-24T10:45:36;10.70;99.90
7934;DHT22;4012;48.896;9.192;2022-11-24T10:48:06;10.90;99.90
7934;DHT22;4012;48.896;9.192;2022-11-24T10:50:35;11.10;99.90
7934;DHT22;4012;48.896;9.192;2022-11-24T10:53:25;10.80;99.90
7934;DHT22;4012;48.896;9.192;2022-11-24T10:58:28;10.40;99.90
7934;DHT22;4012;48.896;9.192;2022-11-24T11:01:01;10.70;99.90
7934;DHT22;4012;48.896;9.192;2022-11-24T11:03:31;10.70;99.90
7934;DHT22;4012;48.896;9.192;2022-11-24T11:08:29;10.60;99.90
7934;DHT22;4012;48.896;9.192;2022-11-24T11:13:35;10.40;99.90
7934;DHT22;4012;48.896;9.192;2022-11-24T11:16:18;10.50;99.90
7934;DHT22;4012;48.896;9.192;2022-11-24T11:18:48;10.60;99.90
7934;DHT22;4012;48.896;9.192;2022-11-24T11:21:35;10.60;99.90
7934;DHT22;4012;48.896;9.192;2022-11-24T11:24:13;10.70;99.90
7934;DHT22;4012;48.896;9.192;2022-11-24T11:26:41;10.60;99.90
7934;DHT22;4012;48.896;9.192;2022-11-24T11:31:33;10.70;99.90
7934;DHT22;4012;48.896;9.192;2022-11-24T11:36:38;11.10;99.90
7934;DHT22;4012;48.896;9.192;2022-11-24T11:39:04;11.10;99.90
7934;DHT22;4012;48.896;9.192;2022-11-24T11:41:35;11.10;99.90
7934;DHT22;4012;48.896;9.192;2022-11-24T11:46:41;11.20;99.90
7934;DHT22;4012;48.896;9.192;2022-11-24T11:49:10;11.50;99.90
7934;DHT22;4012;48.896;9.192;2022-11-24T11:57:55;11.30;99.90
7934;DHT22;4012;48.896;9.192;2022-11-24T12:00:25;11.40;99.90
7934;DHT22;4012;48.896;9.192;2022-11-24T12:03:24;11.60;99.90
7934;DHT22;4012;48.896;9.192;2022-11-24T12:06:06;11.60;99.90
7934;DHT22;4012;48.896;9.192;2022-11-24T12:09:00;11.40;99.90
7934;DHT22;4012;48.896;9.192;2022-11-24T12:11:33;11.20;99.90
7934;DHT22;4012;48.896;9.192;2022-11-24T12:17:38;10.90;99.90
7934;DHT22;4012;48.896;9.192;2022-11-24T12:20:29;10.90;99.90
7934;DHT22;4012;48.896;9.192;2022-11-24T12:23:19;11.30;99.90
7934;DHT22;4012;48.896;9.192;2022-11-24T12:26:12;11.40;99.90
7934;DHT22;4012;48.896;9.192;2022-11-24T12:28:45;11.30;99.90
7934;DHT22;4012;48.896;9.192;2022-11-24T12:31:33;11.10;99.90
7934;DHT22;4012;48.896;9.192;2022-11-24T12:39:46;11.00;99.90
7934;DHT22;4012;48.896;9.192;2022-11-24T12:50:19;10.90;99.90
7934;DHT22;4012;48.896;9.192;2022-11-24T12:55:42;10.90;99.90
7934;DHT22;4012;48.896;9.192;2022-11-24T12:58:24;10.80;99.90
7934;DHT22;4012;48.896;9.192;2022-11-24T13:06:46;11.20;99.90
7934;DHT22;4012;48.896;9.192;2022-11-24T13:09:16;11.00;99.90
7934;DHT22;4012;48.896;9.192;2022-11-24T13:11:43;11.00;99.90
7934;DHT22;4012;48.896;9.192;2022-11-24T13:14:42;11.10;99.90
7934;DHT22;4012;48.896;9.192;2022-11-24T13:17:31;11.10;99.90
7934;DHT22;4012;48.896;9.192;2022-11-24T13:22:51;11.10;99.90
7934;DHT22;4012;48.896;9.192;2022-11-24T13:27:44;11.10;99.90
7934;DHT22;4012;48.896;9.192;2022-11-24T13:35:28;10.90;99.90
7934;DHT22;4012;48.896;9.192;2022-11-24T13:37:54;11.00;99.90
7934;DHT22;4012;48.896;9.192;2022-11-24T13:53:33;11.30;99.90
7934;DHT22;4012;48.896;9.192;2022-11-24T13:58:55;11.50;99.90
7934;DHT22;4012;48.896;9.192;2022-11-24T14:01:25;11.40;99.90
7934;DHT22;4012;48.896;9.192;2022-11-24T14:04:04;11.10;99.90
7934;DHT22;4012;48.896;9.192;2022-11-24T14:06:39;11.10;99.90
7934;DHT22;4012;48.896;9.192;2022-11-24T14:09:27;11.20;99.90
7934;DHT22;4012;48.896;9.192;2022-11-24T14:12:17;11.20;99.90
7934;DHT22;4012;48.896;9.192;2022-11-24T14:14:46;11.20;99.90
7934;DHT22;4012;48.896;9.192;2022-11-24T14:19:39;11.20;99.90
7934;DHT22;4012;48.896;9.192;2022-11-24T14:22:10;11.20;99.90
7934;DHT22;4012;48.896;9.192;2022-11-24T14:24:36;11.20;99.90
7934;DHT22;4012;48.896;9.192;2022-11-24T14:27:03;11.20;99.90
7934;DHT22;4012;48.896;9.192;2022-11-24T14:29:28;11.20;99.90
7934;DHT22;4012;48.896;9.192;2022-11-24T14:32:01;11.10;99.90
7934;DHT22;4012;48.896;9.192;2022-11-24T14:34:31;11.10;99.90
7934;DHT22;4012;48.896;9.192;2022-11-24T14:36:59;11.00;99.90
7934;DHT22;4012;48.896;9.192;2022-11-24T14:39:26;11.10;99.90
7934;DHT22;4012;48.896;9.192;2022-11-24T14:44:52;10.90;99.90
7934;DHT22;4012;48.896;9.192;2022-11-24T14:47:28;10.90;99.90
7934;DHT22;4012;48.896;9.192;2022-11-24T14:49:55;10.90;99.90
7934;DHT22;4012;48.896;9.192;2022-11-24T14:52:22;10.90;99.90
7934;DHT22;4012;48.896;9.192;2022-11-24T14:54:50;10.90;99.90
7934;DHT22;4012;48.896;9.192;2022-11-24T14:57:31;10.80;99.90
7934;DHT22;4012;48.896;9.192;2022-11-24T15:02:52;10.90;99.90
7934;DHT22;4012;48.896;9.192;2022-11-24T15:05:20;11.00;99.90
7934;DHT22;4012;48.896;9.192;2022-11-24T15:07:47;11.10;99.90
7934;DHT22;4012;48.896;9.192;2022-11-24T15:10:27;11.10;99.90
7934;DHT22;4012;48.896;9.192;2022-11-24T15:12:59;11.10;99.90
7934;DHT22;4012;48.896;9.192;2022-11-24T15:15:31;11.10;99.90
7934;DHT22;4012;48.896;9.192;2022-11-24T15:17:58;11.10;99.90
7934;DHT22;4012;48.896;9.192;2022-11-24T15:25:48;10.90;99.90
7934;DHT22;4012;48.896;9.192;2022-11-24T15:28:14;10.80;99.90
7934;DHT22;4012;48.896;9.192;2022-11-24T15:30:40;10.60;99.90
7934;DHT22;4012;48.896;9.192;2022-11-24T15:33:15;10.50;99.90
7934;DHT22;4012;48.896;9.192;2022-11-24T15:35:41;10.60;99.90
7934;DHT22;4012;48.896;9.192;2022-11-24T15:38:06;10.50;99.90
7934;DHT22;4012;48.896;9.192;2022-11-24T15:40:32;10.50;99.90
7934;DHT22;4012;48.896;9.192;2022-11-24T15:42:58;10.40;99.90
7934;DHT22;4012;48.896;9.192;2022-11-24T15:45:25;10.30;99.90
7934;DHT22;4012;48.896;9.192;2022-11-24T15:47:51;10.10;99.90
7934;DHT22;4012;48.896;9.192;2022-11-24T15:50:17;10.10;99.90
7934;DHT22;4012;48.896;9.192;2022-11-24T15:52:44;10.10;99.90
7934;DHT22;4012;48.896;9.192;2022-11-24T15:55:20;10.00;99.90
7934;DHT22;4012;48.896;9.192;2022-11-24T15:57:47;10.10;99.90
7934;DHT22;4012;48.896;9.192;2022-11-24T16:00:15;9.90;99.90
7934;DHT22;4012;48.896;9.192;2022-11-24T16:02:41;10.00;99.90
7934;DHT22;4012;48.896;9.192;2022-11-24T16:05:07;10.00;99.90
7934;DHT22;4012;48.896;9.192;2022-11-24T16:07:33;10.00;99.90
7934;DHT22;4012;48.896;9.192;2022-11-24T16:09:58;10.10;99.90
7934;DHT22;4012;48.896;9.192;2022-11-24T16:12:24;9.90;99.90
7934;DHT22;4012;48.896;9.192;2022-11-24T16:14:50;9.80;99.90
7934;DHT22;4012;48.896;9.192;2022-11-24T16:17:15;9.80;99.90
7934;DHT22;4012;48.896;9.192;2022-11-24T16:19:41;9.80;99.90
7934;DHT22;4012;48.896;9.192;2022-11-24T16:22:06;9.90;99.90
7934;DHT22;4012;48.896;9.192;2022-11-24T16:24:32;9.80;99.90
7934;DHT22;4012;48.896;9.192;2022-11-24T16:26:58;9.80;99.90
7934;DHT22;4012;48.896;9.192;2022-11-24T16:29:23;9.70;99.90
7934;DHT22;4012;48.896;9.192;2022-11-24T16:31:52;9.60;99.90
7934;DHT22;4012;48.896;9.192;2022-11-24T16:34:18;9.50;99.90
7934;DHT22;4012;48.896;9.192;2022-11-24T16:36:44;9.40;99.90
7934;DHT22;4012;48.896;9.192;2022-11-24T16:39:09;9.20;99.90
7934;DHT22;4012;48.896;9.192;2022-11-24T16:41:35;9.10;99.90
7934;DHT22;4012;48.896;9.192;2022-11-24T16:44:01;9.00;99.90
7934;DHT22;4012;48.896;9.192;2022-11-24T16:46:26;8.90;99.90
7934;DHT22;4012;48.896;9.192;2022-11-24T16:48:53;9.00;99.90
7934;DHT22;4012;48.896;9.192;2022-11-24T16:51:22;9.20;99.90
7934;DHT22;4012;48.896;9.192;2022-11-24T16:53:56;9.30;99.90
7934;DHT22;4012;48.896;9.192;2022-11-24T16:56:22;9.20;99.90
7934;DHT22;4012;48.896;9.192;2022-11-24T16:58:48;9.30;99.90
7934;DHT22;4012;48.896;9.192;2022-11-24T17:01:13;9.20;99.90
7934;DHT22;4012;48.896;9.192;2022-11-24T17:03:40;9.10;99.90
7934;DHT22;4012;48.896;9.192;2022-11-24T17:06:10;9.30;99.90
7934;DHT22;4012;48.896;9.192;2022-11-24T17:08:37;9.30;99.90
7934;DHT22;4012;48.896;9.192;2022-11-24T17:11:23;9.20;99.90
7934;DHT22;4012;48.896;9.192;2022-11-24T17:13:49;9.10;99.90
7934;DHT22;4012;48.896;9.192;2022-11-24T17:16:17;9.20;99.90
7934;DHT22;4012;48.896;9.192;2022-11-24T17:18:44;9.00;99.90
7934;DHT22;4012;48.896;9.192;2022-11-24T17:21:21;8.90;99.90
7934;DHT22;4012;48.896;9.192;2022-11-24T17:23:51;8.80;99.90
7934;DHT22;4012;48.896;9.192;2022-11-24T17:26:17;8.70;99.90
7934;DHT22;4012;48.896;9.192;2022-11-24T17:28:43;8.50;99.90
7934;DHT22;4012;48.896;9.192;2022-11-24T17:33:38;8.70;99.90
7934;DHT22;4012;48.896;9.192;2022-11-24T17:36:04;8.60;99.90
7934;DHT22;4012;48.896;9.192;2022-11-24T17:38:30;8.50;99.90
7934;DHT22;4012;48.896;9.192;2022-11-24T17:40:56;8.40;99.90
7934;DHT22;4012;48.896;9.192;2022-11-24T17:43:22;8.40;99.90
7934;DHT22;4012;48.896;9.192;2022-11-24T17:45:58;8.30;99.90
7934;DHT22;4012;48.896;9.192;2022-11-24T17:48:25;8.30;99.90
7934;DHT22;4012;48.896;9.192;2022-11-24T17:51:10;8.20;99.90
7934;DHT22;4012;48.896;9.192;2022-11-24T17:53:41;8.20;99.90
7934;DHT22;4012;48.896;9.192;2022-11-24T17:56:15;8.20;99.90
7934;DHT22;4012;48.896;9.192;2022-11-24T17:58:41;8.10;99.90
7934;DHT22;4012;48.896;9.192;2022-11-24T18:01:07;8.10;99.90
7934;DHT22;4012;48.896;9.192;2022-11-24T18:03:33;8.10;99.90
7934;DHT22;4012;48.896;9.192;2022-11-24T18:06:12;8.10;99.90
7934;DHT22;4012;48.896;9.192;2022-11-24T18:08:40;8.10;99.90
7934;DHT22;4012;48.896;9.192;2022-11-24T18:11:14;8.10;99.90
7934;DHT22;4012;48.896;9.192;2022-11-24T18:13:40;8.00;99.90
7934;DHT22;4012;48.896;9.192;2022-11-24T18:16:08;7.90;99.90
7934;DHT22;4012;48.896;9.192;2022-11-24T18:18:34;7.90;99.90
7934;DHT22;4012;48.896;9.192;2022-11-24T18:21:01;7.90;99.90